createdAt,value
2023-05-20T00:00:51.034Z,16.10
2023-05-20T00:03:18.232Z,16.10
2023-05-20T00:05:45.108Z,16.00
2023-05-20T00:08:12.325Z,16.20
2023-05-20T00:10:39.596Z,16.00
2023-05-20T00:13:09.116Z,16.00
2023-05-20T00:15:38.930Z,16.00
2023-05-20T00:18:05.785Z,15.90
2023-05-20T00:20:32.950Z,15.90
2023-05-20T00:23:00.019Z,15.90
2023-05-20T00:25:26.952Z,15.90
2023-05-20T00:27:53.740Z,16.00
2023-05-20T00:30:20.585Z,15.80
2023-05-20T00:32:48.056Z,16.80
2023-05-20T00:35:14.979Z,16.70
2023-05-20T00:37:41.733Z,15.70
2023-05-20T00:40:09.190Z,15.70
2023-05-20T00:42:36.106Z,15.80
2023-05-20T00:45:03.184Z,15.60
2023-05-20T00:47:33.165Z,15.80
2023-05-20T00:50:00.742Z,15.70
2023-05-20T00:52:31.245Z,15.60
2023-05-20T00:54:59.679Z,15.80
2023-05-20T00:57:26.706Z,15.80
2023-05-20T00:59:53.810Z,15.70
2023-05-20T01:02:21.228Z,15.90
2023-05-20T01:04:48.373Z,15.90
2023-05-20T01:07:17.480Z,15.80
2023-05-20T01:09:44.954Z,15.70
2023-05-20T01:12:17.086Z,15.80
2023-05-20T01:14:53.224Z,15.70
2023-05-20T01:17:21.090Z,15.70
2023-05-20T01:19:49.052Z,15.70
2023-05-20T01:22:16.217Z,15.70
2023-05-20T01:24:44.784Z,15.70
2023-05-20T01:27:13.531Z,15.70
2023-05-20T01:29:42.839Z,15.60
2023-05-20T01:32:21.214Z,15.60
2023-05-20T01:34:51.154Z,15.60
2023-05-20T01:37:19.834Z,15.60
2023-05-20T01:39:50.158Z,15.50
2023-05-20T01:42:19.593Z,15.50
2023-05-20T01:44:46.579Z,15.40
2023-05-20T01:47:13.462Z,15.50
2023-05-20T01:49:41.826Z,15.30
2023-05-20T01:52:08.746Z,15.40
2023-05-20T01:54:36.325Z,15.30
2023-05-20T01:57:03.119Z,15.30
2023-05-20T01:59:30.047Z,15.30
2023-05-20T02:01:56.970Z,15.40
2023-05-20T02:04:23.756Z,15.70
2023-05-20T02:06:50.652Z,15.60
2023-05-20T02:09:18.740Z,15.10
2023-05-20T02:11:45.671Z,15.10
2023-05-20T02:14:12.666Z,15.00
2023-05-20T02:16:39.721Z,15.00
2023-05-20T02:19:12.570Z,15.00
2023-05-20T02:21:43.978Z,15.80
2023-05-20T02:24:10.776Z,15.80
2023-05-20T02:26:37.797Z,14.90
2023-05-20T02:29:05.023Z,14.90
2023-05-20T02:31:31.809Z,14.90
2023-05-20T02:33:58.604Z,14.80
2023-05-20T02:36:25.754Z,14.80
2023-05-20T02:38:54.638Z,14.70
2023-05-20T02:41:21.647Z,15.00
2023-05-20T02:43:48.438Z,14.80
2023-05-20T02:46:16.021Z,14.70
2023-05-20T02:48:42.862Z,14.60
2023-05-20T02:51:09.759Z,15.10
2023-05-20T02:53:36.546Z,14.60
2023-05-20T02:56:04.612Z,14.80
2023-05-20T02:58:31.452Z,14.70
2023-05-20T03:00:59.016Z,14.70
2023-05-20T03:03:27.184Z,14.70
2023-05-20T03:05:54.539Z,14.60
2023-05-20T03:08:22.761Z,14.80
2023-05-20T03:10:49.801Z,15.50
2023-05-20T03:13:16.594Z,14.80
2023-05-20T03:15:45.522Z,14.50
2023-05-20T03:18:13.715Z,14.60
2023-05-20T03:20:41.641Z,14.50
2023-05-20T03:23:09.160Z,14.40
2023-05-20T03:25:38.050Z,14.40
2023-05-20T03:28:06.634Z,14.50
2023-05-20T03:30:35.780Z,14.50
2023-05-20T03:33:03.041Z,14.40
2023-05-20T03:35:30.047Z,14.40
2023-05-20T03:37:56.942Z,14.50
2023-05-20T03:40:24.913Z,14.40
2023-05-20T03:42:52.222Z,14.50
2023-05-20T03:45:20.720Z,14.40
2023-05-20T03:47:57.232Z,14.50
2023-05-20T03:50:24.041Z,14.30
2023-05-20T03:52:50.867Z,14.40
2023-05-20T03:55:20.552Z,14.50
2023-05-20T03:57:47.674Z,14.40
2023-05-20T04:00:16.925Z,14.40
2023-05-20T04:02:43.734Z,14.50
2023-05-20T04:05:13.974Z,14.50
2023-05-20T04:07:41.554Z,14.50
2023-05-20T04:10:09.577Z,14.50
2023-05-20T04:12:38.214Z,14.50
2023-05-20T04:15:06.742Z,14.50
2023-05-20T04:17:48.930Z,14.60
2023-05-20T04:20:16.152Z,14.70
2023-05-20T04:22:42.950Z,14.90
2023-05-20T04:25:10.317Z,15.90
2023-05-20T04:27:37.666Z,15.00
2023-05-20T04:30:06.684Z,15.10
2023-05-20T04:32:37.177Z,15.10
2023-05-20T04:35:08.459Z,15.20
2023-05-20T04:37:37.496Z,15.20
2023-05-20T04:40:09.305Z,15.20
2023-05-20T04:42:36.152Z,15.10
2023-05-20T04:45:05.658Z,15.00
2023-05-20T04:47:38.828Z,15.20
2023-05-20T04:50:16.290Z,15.10
2023-05-20T04:52:43.691Z,15.20
2023-05-20T04:55:11.982Z,15.80
2023-05-20T04:57:42.028Z,15.20
2023-05-20T05:00:10.799Z,15.30
2023-05-20T05:02:38.215Z,15.30
2023-05-20T05:05:05.713Z,15.20
2023-05-20T05:07:32.662Z,15.20
2023-05-20T05:09:59.569Z,15.30
2023-05-20T05:12:29.053Z,15.20
2023-05-20T05:14:55.996Z,15.30
2023-05-20T05:17:23.050Z,15.40
2023-05-20T05:19:49.919Z,15.40
2023-05-20T05:22:17.424Z,15.40
2023-05-20T05:24:44.197Z,15.50
2023-05-20T05:27:10.949Z,15.50
2023-05-20T05:29:37.801Z,15.50
2023-05-20T05:32:05.277Z,15.50
2023-05-20T05:34:32.162Z,15.70
2023-05-20T05:36:59.495Z,15.80
2023-05-20T05:39:26.546Z,15.70
2023-05-20T05:41:54.155Z,15.90
2023-05-20T05:44:21.149Z,16.00
2023-05-20T05:46:48.495Z,16.10
2023-05-20T05:49:15.358Z,16.10
2023-05-20T05:51:42.186Z,16.10
2023-05-20T05:54:09.000Z,16.20
2023-05-20T05:56:35.818Z,16.30
2023-05-20T05:59:04.868Z,16.40
2023-05-20T06:01:31.808Z,16.40
2023-05-20T06:03:59.558Z,16.40
2023-05-20T06:06:26.762Z,17.10
2023-05-20T06:08:54.061Z,16.70
2023-05-20T06:11:21.738Z,16.80
2023-05-20T06:13:48.595Z,16.80
2023-05-20T06:16:16.614Z,16.90
2023-05-20T06:18:43.566Z,16.90
2023-05-20T06:21:10.428Z,17.00
2023-05-20T06:23:37.367Z,17.40
2023-05-20T06:26:06.712Z,17.10
2023-05-20T06:28:33.842Z,17.20
2023-05-20T06:31:00.744Z,17.30
2023-05-20T06:33:31.043Z,17.30
2023-05-20T06:36:05.531Z,17.40
2023-05-20T06:38:32.299Z,17.50
2023-05-20T06:40:59.139Z,17.60
2023-05-20T06:43:25.960Z,17.80
2023-05-20T06:46:00.354Z,17.80
2023-05-20T06:48:35.458Z,17.90
2023-05-20T06:51:02.246Z,18.70
2023-05-20T06:53:29.116Z,18.00
2023-05-20T06:55:56.189Z,18.30
2023-05-20T06:58:23.361Z,18.30
2023-05-20T07:00:50.223Z,18.30
2023-05-20T07:03:17.249Z,18.40
2023-05-20T07:05:44.861Z,18.60
2023-05-20T07:08:12.108Z,18.70
2023-05-20T07:10:38.956Z,18.80
2023-05-20T07:13:06.234Z,18.90
2023-05-20T07:15:33.295Z,18.90
2023-05-20T07:18:00.601Z,19.00
2023-05-20T07:20:27.646Z,18.90
2023-05-20T07:22:55.569Z,19.20
2023-05-20T07:25:30.237Z,19.20
2023-05-20T07:27:57.344Z,19.40
2023-05-20T07:30:24.262Z,19.50
2023-05-20T07:33:08.621Z,19.50
2023-05-20T07:35:35.756Z,19.50
2023-05-20T07:38:02.921Z,19.60
2023-05-20T07:40:30.094Z,19.80
2023-05-20T07:42:57.020Z,19.90
2023-05-20T07:45:23.847Z,19.90
2023-05-20T07:47:50.847Z,20.30
2023-05-20T07:50:17.622Z,20.00
2023-05-20T07:52:56.041Z,20.20
2023-05-20T07:55:26.212Z,20.20
2023-05-20T07:57:53.092Z,20.10
2023-05-20T08:00:21.139Z,20.20
2023-05-20T08:02:47.970Z,20.30
2023-05-20T08:05:20.643Z,20.20
2023-05-20T08:07:47.524Z,20.30
2023-05-20T08:10:15.706Z,20.40
2023-05-20T08:12:43.946Z,20.40
2023-05-20T08:15:11.674Z,20.40
2023-05-20T08:17:39.939Z,20.60
2023-05-20T08:20:08.854Z,20.60
2023-05-20T08:22:37.548Z,20.80
2023-05-20T08:25:08.043Z,20.70
2023-05-20T08:27:36.526Z,20.80
2023-05-20T08:30:07.116Z,20.70
2023-05-20T08:32:34.082Z,20.90
2023-05-20T08:35:02.150Z,21.00
2023-05-20T08:37:29.891Z,21.10
2023-05-20T08:39:56.799Z,21.60
2023-05-20T08:42:24.863Z,21.10
2023-05-20T08:44:54.467Z,21.10
2023-05-20T08:47:22.869Z,21.00
2023-05-20T08:49:50.179Z,20.90
2023-05-20T08:52:21.200Z,20.90
2023-05-20T08:54:49.562Z,20.90
2023-05-20T08:57:16.884Z,20.70
2023-05-20T08:59:45.637Z,20.90
2023-05-20T09:02:12.987Z,21.00
2023-05-20T09:04:39.946Z,21.10
2023-05-20T09:07:06.786Z,21.20
2023-05-20T09:09:35.145Z,21.20
2023-05-20T09:12:03.568Z,21.30
2023-05-20T09:14:33.397Z,21.30
2023-05-20T09:17:00.309Z,21.30
2023-05-20T09:19:27.255Z,21.20
2023-05-20T09:21:58.286Z,21.20
2023-05-20T09:24:26.268Z,21.20
2023-05-20T09:26:53.368Z,21.10
2023-05-20T09:29:21.818Z,21.40
2023-05-20T09:31:49.687Z,21.20
2023-05-20T09:34:17.039Z,21.50
2023-05-20T09:36:45.211Z,21.60
2023-05-20T09:39:19.967Z,21.60
2023-05-20T09:41:54.987Z,21.60
2023-05-20T09:44:22.979Z,21.50
2023-05-20T09:46:50.974Z,21.70
2023-05-20T09:49:19.047Z,22.30
2023-05-20T09:51:46.817Z,21.80
2023-05-20T09:54:14.065Z,21.90
2023-05-20T09:56:42.213Z,21.90
2023-05-20T09:59:10.588Z,22.10
2023-05-20T10:01:37.479Z,22.20
2023-05-20T10:04:07.839Z,22.40
2023-05-20T10:06:56.137Z,22.50
2023-05-20T10:09:45.685Z,22.50
2023-05-20T10:12:35.644Z,22.60
2023-05-20T10:15:02.323Z,22.50
2023-05-20T10:17:45.591Z,22.70
2023-05-20T10:20:13.018Z,22.40
2023-05-20T10:22:45.206Z,22.50
2023-05-20T10:25:27.988Z,22.60
2023-05-20T10:28:07.932Z,22.70
2023-05-20T10:30:35.802Z,22.60
2023-05-20T10:33:05.631Z,22.40
2023-05-20T10:35:33.036Z,22.50
2023-05-20T10:38:11.874Z,22.30
2023-05-20T10:40:39.043Z,22.30
2023-05-20T10:43:11.325Z,22.40
2023-05-20T10:45:51.878Z,22.70
2023-05-20T10:48:29.941Z,22.90
2023-05-20T10:50:58.453Z,23.10
2023-05-20T10:53:34.212Z,23.30
2023-05-20T10:56:02.479Z,23.90
2023-05-20T10:58:37.533Z,23.50
2023-05-20T11:01:04.792Z,23.60
2023-05-20T11:03:33.153Z,23.70
2023-05-20T11:05:59.945Z,24.00
2023-05-20T11:08:31.450Z,24.20
2023-05-20T11:10:58.531Z,23.90
2023-05-20T11:13:26.731Z,23.80
2023-05-20T11:15:53.839Z,23.70
2023-05-20T11:18:20.935Z,23.80
2023-05-20T11:20:48.040Z,24.00
2023-05-20T11:23:15.850Z,24.30
2023-05-20T11:25:43.131Z,24.50
2023-05-20T11:28:16.421Z,24.80
2023-05-20T11:30:43.673Z,25.00
2023-05-20T11:33:13.392Z,24.80
2023-05-20T11:35:53.703Z,24.90
2023-05-20T11:38:21.741Z,24.60
2023-05-20T11:40:56.117Z,24.60
2023-05-20T11:43:24.231Z,24.80
2023-05-20T11:45:56.348Z,24.80
2023-05-20T11:48:24.120Z,24.70
2023-05-20T11:50:52.836Z,25.00
2023-05-20T11:53:21.303Z,25.10
2023-05-20T11:55:54.086Z,25.10
2023-05-20T11:58:23.638Z,25.10
2023-05-20T12:00:56.728Z,25.10
2023-05-20T12:03:26.533Z,25.20
2023-05-20T12:05:53.532Z,25.20
2023-05-20T12:08:20.367Z,25.30
2023-05-20T12:10:47.172Z,25.70
2023-05-20T12:13:13.966Z,26.20
2023-05-20T12:15:41.382Z,26.70
2023-05-20T12:18:08.282Z,27.00
2023-05-20T12:20:36.435Z,27.00
2023-05-20T12:23:03.632Z,26.70
2023-05-20T12:25:30.601Z,26.30
2023-05-20T12:27:57.451Z,25.70
2023-05-20T12:30:24.648Z,25.70
2023-05-20T12:32:52.111Z,24.80
2023-05-20T12:35:35.941Z,24.80
2023-05-20T12:38:02.858Z,25.10
2023-05-20T12:40:29.607Z,25.50
2023-05-20T12:42:56.387Z,25.50
2023-05-20T12:45:23.103Z,25.70
2023-05-20T12:47:50.141Z,25.00
2023-05-20T12:50:16.945Z,25.30
2023-05-20T12:52:43.701Z,25.10
2023-05-20T12:55:13.811Z,25.60
2023-05-20T12:57:41.726Z,25.30
2023-05-20T13:00:10.186Z,25.40
2023-05-20T13:02:39.773Z,25.50
2023-05-20T13:05:07.105Z,25.90
2023-05-20T13:07:34.210Z,25.50
2023-05-20T13:10:01.252Z,25.50
2023-05-20T13:12:28.181Z,25.60
2023-05-20T13:14:55.006Z,25.90
2023-05-20T13:17:21.723Z,25.50
2023-05-20T13:19:48.841Z,25.40
2023-05-20T13:22:15.817Z,25.70
2023-05-20T13:24:42.605Z,26.00
2023-05-20T13:27:09.317Z,26.00
2023-05-20T13:29:36.137Z,26.10
2023-05-20T13:32:03.946Z,25.90
2023-05-20T13:34:31.655Z,25.90
2023-05-20T13:36:58.554Z,26.00
2023-05-20T13:39:25.491Z,26.00
2023-05-20T13:41:54.948Z,26.20
2023-05-20T13:44:21.795Z,26.50
2023-05-20T13:46:48.625Z,26.40
2023-05-20T13:49:15.672Z,26.80
2023-05-20T13:51:42.446Z,27.40
2023-05-20T13:54:09.242Z,27.50
2023-05-20T13:56:36.056Z,27.70
2023-05-20T13:59:02.784Z,27.50
2023-05-20T14:01:32.971Z,27.40
2023-05-20T14:03:59.906Z,27.00
2023-05-20T14:06:27.403Z,26.60
2023-05-20T14:08:54.892Z,26.40
2023-05-20T14:11:21.836Z,26.20
2023-05-20T14:13:48.803Z,26.40
2023-05-20T14:16:15.735Z,26.60
2023-05-20T14:18:42.935Z,27.20
2023-05-20T14:21:09.772Z,27.50
2023-05-20T14:23:36.617Z,27.50
2023-05-20T14:26:03.394Z,27.20
2023-05-20T14:28:30.094Z,26.90
2023-05-20T14:30:56.837Z,26.80
2023-05-20T14:33:23.534Z,27.00
2023-05-20T14:35:50.447Z,26.80
2023-05-20T14:38:18.113Z,26.70
2023-05-20T14:40:44.857Z,26.60
2023-05-20T14:43:11.601Z,26.80
2023-05-20T14:45:38.419Z,27.00
2023-05-20T14:48:05.649Z,27.20
2023-05-20T14:50:32.503Z,27.40
2023-05-20T14:52:59.474Z,27.20
2023-05-20T14:55:26.331Z,26.90
2023-05-20T14:57:53.174Z,26.70
2023-05-20T15:00:19.975Z,26.90
2023-05-20T15:02:46.772Z,27.30
2023-05-20T15:05:14.270Z,27.30
2023-05-20T15:07:41.025Z,27.30
2023-05-20T15:10:08.799Z,27.00
2023-05-20T15:12:35.542Z,26.70
2023-05-20T15:15:02.519Z,26.60
2023-05-20T15:17:29.366Z,26.00
2023-05-20T15:19:56.260Z,25.50
2023-05-20T15:22:22.987Z,25.50
2023-05-20T15:24:49.754Z,25.50
2023-05-20T15:27:16.618Z,25.00
2023-05-20T15:29:43.494Z,25.10
2023-05-20T15:32:10.476Z,25.40
2023-05-20T15:34:37.283Z,24.80
2023-05-20T15:37:04.152Z,24.90
2023-05-20T15:39:30.901Z,24.80
2023-05-20T15:41:59.632Z,25.10
2023-05-20T15:44:28.620Z,24.90
2023-05-20T15:46:55.962Z,25.20
2023-05-20T15:49:22.679Z,24.80
2023-05-20T15:51:59.423Z,24.60
2023-05-20T15:54:30.440Z,24.40
2023-05-20T15:56:57.979Z,24.20
2023-05-20T15:59:24.966Z,24.10
2023-05-20T16:01:51.757Z,24.00
2023-05-20T16:04:19.170Z,23.80
2023-05-20T16:06:46.708Z,23.70
2023-05-20T16:09:13.522Z,23.80
2023-05-20T16:11:40.325Z,24.30
2023-05-20T16:14:07.079Z,23.90
2023-05-20T16:16:35.861Z,24.40
2023-05-20T16:19:03.119Z,23.90
2023-05-20T16:21:29.934Z,23.90
2023-05-20T16:23:56.691Z,24.00
2023-05-20T16:26:23.487Z,24.10
2023-05-20T16:28:50.295Z,24.00
2023-05-20T16:31:17.054Z,24.00
2023-05-20T16:33:43.855Z,24.10
2023-05-20T16:36:12.022Z,24.40
2023-05-20T16:38:39.144Z,24.60
2023-05-20T16:41:06.037Z,24.20
2023-05-20T16:43:32.807Z,24.30
2023-05-20T16:45:59.709Z,24.30
2023-05-20T16:48:26.744Z,24.40
2023-05-20T16:50:53.517Z,24.50
2023-05-20T16:53:20.620Z,24.30
2023-05-20T16:55:47.745Z,24.30
2023-05-20T16:58:14.595Z,24.20
2023-05-20T17:00:41.632Z,24.20
2023-05-20T17:03:08.463Z,24.30
2023-05-20T17:05:35.289Z,24.20
2023-05-20T17:08:02.110Z,24.20
2023-05-20T17:10:29.565Z,24.30
2023-05-20T17:12:56.521Z,24.50
2023-05-20T17:15:23.615Z,24.70
2023-05-20T17:17:51.023Z,24.00
2023-05-20T17:20:17.940Z,23.90
2023-05-20T17:22:44.719Z,23.80
2023-05-20T17:25:11.559Z,23.80
2023-05-20T17:27:38.602Z,23.80
2023-05-20T17:30:06.159Z,23.70
2023-05-20T17:32:33.019Z,23.60
2023-05-20T17:34:59.900Z,23.60
2023-05-20T17:37:26.699Z,23.50
2023-05-20T17:39:53.474Z,23.50
2023-05-20T17:42:20.525Z,23.40
2023-05-20T17:44:47.245Z,23.30
2023-05-20T17:47:14.016Z,23.20
2023-05-20T17:49:41.230Z,23.10
2023-05-20T17:52:08.002Z,22.80
2023-05-20T17:54:34.859Z,23.20
2023-05-20T17:57:01.621Z,23.10
2023-05-20T17:59:28.742Z,22.80
2023-05-20T18:01:55.853Z,22.70
2023-05-20T18:04:22.765Z,22.70
2023-05-20T18:06:49.560Z,23.10
2023-05-20T18:09:16.927Z,22.50
2023-05-20T18:11:43.662Z,22.50
2023-05-20T18:14:10.755Z,22.40
2023-05-20T18:16:37.814Z,22.40
2023-05-20T18:19:04.709Z,22.30
2023-05-20T18:21:31.556Z,22.40
2023-05-20T18:23:58.357Z,22.20
2023-05-20T18:26:25.129Z,22.20
2023-05-20T18:28:51.899Z,22.20
2023-05-20T18:31:18.731Z,22.30
2023-05-20T18:33:45.947Z,22.00
2023-05-20T18:36:12.979Z,22.00
2023-05-20T18:38:41.485Z,22.10
2023-05-20T18:41:08.964Z,21.90
2023-05-20T18:43:36.202Z,21.80
2023-05-20T18:46:03.233Z,21.90
2023-05-20T18:48:30.059Z,21.70
2023-05-20T18:50:56.917Z,22.00
2023-05-20T18:53:23.775Z,21.70
2023-05-20T18:55:50.687Z,21.60
2023-05-20T18:58:17.472Z,21.60
2023-05-20T19:00:44.319Z,21.60
2023-05-20T19:03:11.488Z,21.50
2023-05-20T19:05:38.728Z,21.40
2023-05-20T19:08:06.090Z,21.50
2023-05-20T19:10:33.047Z,21.40
2023-05-20T19:12:59.928Z,20.60
2023-05-20T19:15:26.875Z,21.30
2023-05-20T19:17:53.685Z,21.30
2023-05-20T19:20:20.980Z,21.30
2023-05-20T19:22:47.764Z,21.20
2023-05-20T19:25:14.668Z,21.00
2023-05-20T19:27:41.489Z,21.10
2023-05-20T19:30:10.680Z,21.00
2023-05-20T19:32:38.761Z,21.00
2023-05-20T19:35:06.300Z,20.90
2023-05-20T19:37:33.420Z,20.90
2023-05-20T19:40:00.917Z,20.80
2023-05-20T19:42:27.797Z,21.20
2023-05-20T19:44:54.609Z,20.80
2023-05-20T19:47:21.767Z,20.90
2023-05-20T19:49:48.667Z,20.70
2023-05-20T19:52:15.712Z,20.60
2023-05-20T19:54:42.746Z,20.90
2023-05-20T19:57:10.072Z,21.00
2023-05-20T19:59:37.913Z,21.20
2023-05-20T20:02:06.044Z,20.30
2023-05-20T20:04:33.111Z,20.20
2023-05-20T20:07:00.114Z,20.20
2023-05-20T20:09:27.288Z,20.20
2023-05-20T20:11:54.309Z,20.10
2023-05-20T20:14:22.118Z,19.90
2023-05-20T20:16:49.224Z,19.90
2023-05-20T20:19:23.035Z,20.00
2023-05-20T20:21:52.302Z,20.00
2023-05-20T20:24:19.964Z,20.30
2023-05-20T20:26:47.516Z,19.80
2023-05-20T20:29:15.190Z,19.80
2023-05-20T20:31:42.115Z,19.70
2023-05-20T20:34:08.990Z,19.70
2023-05-20T20:36:35.820Z,19.60
2023-05-20T20:39:04.905Z,19.70
2023-05-20T20:41:32.433Z,19.70
2023-05-20T20:43:59.795Z,19.60
2023-05-20T20:46:29.400Z,19.60
2023-05-20T20:48:56.157Z,19.60
2023-05-20T20:51:23.163Z,20.20
2023-05-20T20:53:52.101Z,19.70
2023-05-20T20:56:19.042Z,19.70
2023-05-20T20:58:46.229Z,19.80
2023-05-20T21:01:17.562Z,19.70
2023-05-20T21:03:44.963Z,19.70
2023-05-20T21:06:15.393Z,19.80
2023-05-20T21:08:42.581Z,19.70
2023-05-20T21:11:09.353Z,19.80
2023-05-20T21:13:37.619Z,19.90
2023-05-20T21:16:06.391Z,19.70
2023-05-20T21:18:33.188Z,19.80
2023-05-20T21:21:00.304Z,19.70
2023-05-20T21:23:27.133Z,19.70
2023-05-20T21:25:53.939Z,19.60
2023-05-20T21:28:20.837Z,19.80
2023-05-20T21:30:47.747Z,19.70
2023-05-20T21:33:14.620Z,19.90
2023-05-20T21:35:41.404Z,20.30
2023-05-20T21:38:08.132Z,19.80
2023-05-20T21:40:34.915Z,19.70
2023-05-20T21:43:01.677Z,19.70
2023-05-20T21:45:28.391Z,19.60
2023-05-20T21:47:55.191Z,19.60
2023-05-20T21:50:22.226Z,19.50
2023-05-20T21:52:50.403Z,19.50
2023-05-20T21:55:23.057Z,19.40
2023-05-20T21:57:51.141Z,19.50
2023-05-20T22:00:19.010Z,19.40
2023-05-20T22:02:46.261Z,19.50
2023-05-20T22:05:13.179Z,19.30
2023-05-20T22:07:46.979Z,19.40
2023-05-20T22:10:14.580Z,19.30
2023-05-20T22:12:44.328Z,19.20
2023-05-20T22:15:11.558Z,19.10
2023-05-20T22:17:38.797Z,19.40
2023-05-20T22:20:10.480Z,21.40
2023-05-20T22:22:39.041Z,19.30
2023-05-20T22:25:07.162Z,19.30
2023-05-20T22:27:34.844Z,19.30
2023-05-20T22:30:02.119Z,19.10
2023-05-20T22:32:28.963Z,19.30
2023-05-20T22:34:58.356Z,19.20
2023-05-20T22:37:26.555Z,19.20
2023-05-20T22:39:53.349Z,19.30
2023-05-20T22:42:20.455Z,19.30
2023-05-20T22:44:47.161Z,19.20
2023-05-20T22:47:13.931Z,19.20
2023-05-20T22:49:42.146Z,19.30
2023-05-20T22:52:08.900Z,19.50
2023-05-20T22:54:35.745Z,19.30
2023-05-20T22:57:02.899Z,19.20
2023-05-20T22:59:32.885Z,19.30
2023-05-20T23:01:59.667Z,19.20
2023-05-20T23:04:26.575Z,19.30
2023-05-20T23:06:53.832Z,19.10
2023-05-20T23:09:21.006Z,19.10
2023-05-20T23:11:47.870Z,19.30
2023-05-20T23:14:14.698Z,19.60
2023-05-20T23:16:43.222Z,19.20
2023-05-20T23:19:10.044Z,19.20
2023-05-20T23:21:37.437Z,19.20
2023-05-20T23:24:04.710Z,19.10
2023-05-20T23:26:33.663Z,19.20
2023-05-20T23:29:04.623Z,19.10
2023-05-20T23:31:32.753Z,19.40
2023-05-20T23:33:59.781Z,19.00
2023-05-20T23:36:28.961Z,19.10
2023-05-20T23:38:56.401Z,19.30
2023-05-20T23:41:23.630Z,19.10
2023-05-20T23:43:50.740Z,19.20
2023-05-20T23:46:18.521Z,19.30
2023-05-20T23:48:48.176Z,19.10
2023-05-20T23:51:16.380Z,19.00
2023-05-20T23:53:44.332Z,19.00
2023-05-20T23:56:11.349Z,18.90
2023-05-20T23:58:38.401Z,19.70
